Latest Weather Observations for Bombala AWS

IDN60801

Issued at 8:15 pm EDT Friday 30 January 2015 (issued every 30 minutes, with the page automatically refreshed every 10 minutes)

About weather observations | Map of weather stations | Latest weather observations for NSW | Other Formats
Station Details ID: 070328 Name: BOMBALA AWS Lat: -37.00 Lon: 149.23 Height: 760.5 m
Data from the previous 72 hours. | See also: Recent months at Bombala AWS
Date/Time
EDT
Temp
°C
App
Temp
°C
Dew
Point
Rel
Hum
%
Delta-T
°C
Wind Press
QNH
hPa
Press
MSL
hPa
Rain
since 9 am
mm
Dir
 
Spd
km/h
Gust
km/h
Spd
kts
Gust
kts
30/08:00pm 10.5 6.8 10.3 99 0.1 SW 20 28 11 15 1010.7 1007.6 1.4
30/07:30pm 10.6 4.6 10.0 96 0.3 SW 32 44 17 24 1010.3 1007.1 1.4
30/07:00pm 11.2 6.9 10.7 97 0.3 SW 24 33 13 18 1010.1 1006.9 1.4
30/06:30pm 11.0 5.6 10.8 99 0.1 SW 30 39 16 21 1009.8 1006.6 1.4
30/06:00pm 11.1 6.8 10.9 99 0.1 SW 24 32 13 17 1009.8 1006.6 1.4
30/05:30pm 11.3 6.7 11.1 99 0.1 SW 26 35 14 19 1009.8 1006.6 1.4
30/05:00pm 11.4 6.1 11.2 99 0.1 SW 30 41 16 22 1009.8 1006.6 1.2
30/04:30pm 12.0 8.0 11.8 99 0.1 SW 24 30 13 16 1009.9 1006.7 1.0
30/04:00pm 13.1 6.5 11.3 89 1.0 SW 37 54 20 29 1009.9 1006.7 1.0
30/03:30pm 13.6 7.9 11.3 86 1.3 SW 32 50 17 27 1009.8 1006.6 1.0
30/03:22pm 13.4 7.3 11.6 89 1.0 SW 35 54 19 29 1009.9 1006.7 1.0
30/03:00pm 13.6 8.6 12.2 91 0.8 SW 30 41 16 22 1009.6 1006.5 1.0
30/02:30pm 13.1 7.6 12.0 93 0.6 SW 32 41 17 22 1009.8 1006.6 1.0
30/02:00pm 13.2 7.4 11.4 89 1.0 SW 33 43 18 23 1010.0 1006.8 1.0
30/01:36pm 13.4 7.8 12.1 92 0.7 SW 33 52 18 28 1009.9 1006.7 1.0
30/01:30pm 13.1 7.7 12.2 94 0.5 SW 32 43 17 23 1010.1 1006.9 1.0
30/01:00pm 13.0 7.1 12.4 96 0.3 SSW 35 48 19 26 1010.2 1007.0 1.0
30/12:30pm 12.8 7.2 12.0 95 0.4 SW 33 46 18 25 1010.3 1007.1 1.0
30/12:00pm 12.5 6.7 11.6 94 0.5 SSW 33 44 18 24 1010.3 1007.1 1.0
30/11:30am 11.8 5.7 11.6 99 0.1 SW 35 48 19 26 1010.6 1007.5 1.0
30/11:00am 11.4 6.8 11.2 99 0.1 SW 26 41 14 22 1010.8 1007.7 1.0
30/10:30am 10.8 7.2 10.6 99 0.1 WSW 20 24 11 13 1011.2 1008.0 0.8
30/10:00am 10.9 7.0 10.7 99 0.1 WSW 22 32 12 17 1011.3 1008.1 0.4
30/09:30am 10.2 6.7 10.1 99 0.1 WSW 19 26 10 14 1011.4 1008.2 0.4
30/09:00am 9.8 5.6 9.7 99 0.1 WSW 22 28 12 15 1011.5 1008.3 7.0
30/08:30am 9.6 5.7 9.5 99 0.1 SW 20 30 11 16 1011.8 1008.7 7.0
30/08:00am 8.8 4.9 8.7 99 0.1 WSW 19 26 10 14 1011.7 1008.6 7.0
30/07:30am 8.5 4.9 8.4 99 0.1 WSW 17 24 9 13 1011.8 1008.7 7.0
30/07:00am 8.8 4.8 8.2 96 0.3 SW 19 26 10 14 1011.6 1008.5 7.0
30/06:30am 8.6 4.4 8.3 98 0.2 SW 20 32 11 17 1011.5 1008.3 7.0
30/06:00am 8.7 3.8 8.4 98 0.2 SSW 24 33 13 18 1011.6 1008.5 7.0
30/05:30am 8.7 3.8 8.6 99 0.1 SW 24 37 13 20 1011.5 1008.3 7.0
30/05:00am 8.7 3.8 8.6 99 0.1 SSW 24 35 13 19 1011.6 1008.5 7.0
30/04:30am 8.6 5.0 8.5 99 0.1 SSW 17 30 9 16 1011.7 1008.6 7.0
30/04:00am 8.5 4.9 8.4 99 0.1 SW 17 24 9 13 1011.9 1008.8 6.4
30/03:30am 8.7 4.6 8.6 99 0.1 SW 20 28 11 15 1012.1 1009.0 6.0
30/03:00am 8.6 5.0 8.5 99 0.1 SW 17 24 9 13 1012.6 1009.4 6.0
30/02:30am 8.6 5.0 8.5 99 0.1 SW 17 24 9 13 1012.9 1009.8 5.8
30/02:00am 8.6 5.4 8.5 99 0.1 SW 15 20 8 11 1013.3 1010.2 5.8
30/01:30am 8.8 4.9 8.7 99 0.1 SW 19 32 10 17 1013.4 1010.3 5.6
30/01:00am 8.9 6.2 8.8 99 0.1 WSW 13 19 7 10 1013.7 1010.6 5.6
30/12:30am 8.9 5.0 8.8 99 0.1 SW 19 26 10 14 1014.2 1011.1 5.6
30/12:00am 8.9 5.0 8.8 99 0.1 SSW 19 28 10 15 1014.4 1011.3 5.6
 
Date/Time
EDT
Temp
°C
App
Temp
°C
Dew
Point
Rel
Hum
%
Delta-T
°C
Wind Press
QNH
hPa
Press
MSL
hPa
Rain
since 9 am
mm
Dir
 
Spd
km/h
Gust
km/h
Spd
kts
Gust
kts
29/11:30pm 8.6 4.7 8.5 99 0.1 SW 19 28 10 15 1014.6 1011.5 5.6
29/11:00pm 8.8 4.3 8.7 99 0.1 SSW 22 33 12 18 1015.1 1012.1 5.6
29/10:30pm 9.1 4.7 9.0 99 0.1 SSW 22 35 12 19 1015.6 1012.5 5.6
29/10:00pm 9.2 4.4 8.7 97 0.3 SSW 24 33 13 18 1015.5 1012.4 5.2
29/09:30pm 9.3 5.3 9.2 99 0.1 SSW 20 30 11 16 1015.6 1012.5 5.2
29/09:00pm 9.2 5.4 9.1 99 0.1 SSW 19 26 10 14 1015.6 1012.5 5.0
29/08:30pm 9.1 3.9 9.0 99 0.1 SSW 26 33 14 18 1015.5 1012.4 4.8
29/08:00pm 9.8 4.2 8.9 94 0.5 SSW 28 41 15 22 1015.5 1012.4 4.6
29/07:30pm 10.2 6.3 9.4 95 0.4 SSW 20 28 11 15 1015.4 1012.3 4.6
29/07:00pm 10.6 6.0 9.5 93 0.6 S 24 33 13 18 1015.4 1012.3 4.6
29/06:30pm 10.5 6.0 9.9 96 0.3 S 24 33 13 18 1015.2 1012.2 4.6
29/06:00pm 10.3 5.4 10.1 99 0.1 SSW 26 41 14 22 1015.4 1012.3 4.4
29/05:30pm 11.1 7.2 10.9 99 0.1 SSW 22 33 12 18 1015.4 1012.3 4.0
29/05:00pm 10.9 7.0 10.7 99 0.1 SSW 22 33 12 18 1015.6 1012.5 4.0
29/04:30pm 10.3 3.7 10.1 99 0.1 S 35 46 19 25 1015.7 1012.6 3.0
29/04:00pm 12.9 5.6 8.8 76 2.1 S 37 50 20 27 1015.5 1012.4 2.2
29/03:49pm 12.7 5.3 8.2 74 2.3 S 37 56 20 30 1015.5 1012.4 2.2
29/03:30pm 12.5 6.0 9.1 80 1.8 S 33 44 18 24 1015.6 1012.5 2.2
29/03:00pm 12.9 7.4 10.4 85 1.3 S 30 44 16 24 1015.8 1012.7 2.2
29/02:30pm 11.9 6.0 9.1 83 1.5 S 30 39 16 21 1015.8 1012.7 2.2
29/02:00pm 14.3 8.5 10.7 79 2.0 S 32 43 17 23 1015.9 1012.8 2.2
29/01:30pm 13.1 8.4 10.8 86 1.3 S 26 37 14 20 1016.1 1013.0 2.2
29/01:00pm 12.8 8.6 11.2 90 0.9 S 24 32 13 17 1016.4 1013.4 2.0
29/12:30pm 10.5 5.6 10.0 97 0.3 S 26 33 14 18 1017.0 1013.9 2.0
29/12:00pm 12.2 8.1 11.6 96 0.3 SSW 24 33 13 18 1017.1 1014.0 1.2
29/11:30am 12.8 8.8 10.5 86 1.2 SSW 22 37 12 20 1017.1 1014.0 0.0
29/11:00am 12.4 8.4 10.5 88 1.0 S 22 30 12 16 1017.2 1014.1 0.0
29/10:30am 11.1 7.0 10.0 93 0.6 SSW 22 30 12 16 1017.3 1014.2 0.0
29/10:00am 10.1 5.0 9.2 94 0.5 SW 26 33 14 18 1017.2 1014.1 0.0
29/09:30am 10.4 6.6 9.2 92 0.6 S 19 26 10 14 1017.3 1014.2 0.0
29/09:00am 10.3 7.5 10.1 99 0.1 S 15 24 8 13 1017.4 1014.4 5.6
29/08:30am 9.3 6.7 9.2 99 0.1 SW 13 19 7 10 1017.3 1014.2 5.2
29/08:00am 8.9 5.8 8.8 99 0.1 SSW 15 19 8 10 1017.0 1013.9 5.0
29/07:30am 8.7 6.3 8.6 99 0.1 SSW 11 15 6 8 1016.8 1013.7 4.8
29/07:00am 8.4 6.3 8.3 99 0.1 SSW 9 15 5 8 1016.6 1013.6 4.6
29/06:30am 8.2 5.3 8.1 99 0.0 SW 13 19 7 10 1016.4 1013.4 4.6
29/06:00am 7.6 4.9 7.5 99 0.0 SW 11 17 6 9 1016.2 1013.2 4.4
29/05:30am 7.8 5.2 7.7 99 0.0 WSW 11 15 6 8 1016.2 1013.2 4.4
29/05:00am 8.1 5.6 8.0 99 0.0 SW 11 15 6 8 1016.2 1013.2 4.2
29/04:30am 8.1 5.2 8.0 99 0.0 WSW 13 15 7 8 1016.2 1013.2 4.0
29/04:00am 7.7 5.1 7.6 99 0.0 SW 11 15 6 8 1016.4 1013.4 3.4
29/03:30am 7.6 4.2 7.5 99 0.0 SW 15 17 8 9 1016.6 1013.6 3.4
29/03:00am 7.5 4.4 7.4 99 0.0 SW 13 17 7 9 1017.1 1014.0 3.0
29/02:30am 7.3 3.8 7.2 99 0.0 SW 15 19 8 10 1017.2 1014.1 3.0
29/02:00am 7.8 4.8 7.7 99 0.0 SW 13 17 7 9 1017.4 1014.4 3.0
29/01:30am 7.6 4.6 7.5 99 0.0 SSW 13 15 7 8 1017.7 1014.7 3.0
29/01:00am 7.6 5.3 7.5 99 0.0 SSW 9 11 5 6 1018.2 1015.1 3.0
29/12:30am 7.9 5.3 7.8 99 0.0 SW 11 13 6 7 1018.3 1015.2 3.0
29/12:00am 8.1 5.9 8.0 99 0.0 SSW 9 17 5 9 1018.6 1015.6 3.0
 
Date/Time
EDT
Temp
°C
App
Temp
°C
Dew
Point
Rel
Hum
%
Delta-T
°C
Wind Press
QNH
hPa
Press
MSL
hPa
Rain
since 9 am
mm
Dir
 
Spd
km/h
Gust
km/h
Spd
kts
Gust
kts
28/11:30pm 8.6 5.4 8.5 99 0.1 S 15 22 8 12 1018.7 1015.7 3.0
28/11:00pm 9.4 6.8 9.3 99 0.1 S 13 17 7 9 1018.9 1015.9 2.6
28/10:30pm 9.7 7.6 9.6 99 0.1 S 11 19 6 10 1019.1 1016.1 2.2
28/10:00pm 9.6 7.4 9.5 99 0.1 S 11 15 6 8 1019.1 1016.1 2.0
28/09:30pm 9.6 7.4 9.5 99 0.1 S 11 15 6 8 1019.2 1016.2 2.0
28/09:00pm 9.8 7.3 9.8 100 0.0 SSE 13 19 7 10 1019.1 1016.1 2.0
28/08:30pm 9.9 5.7 9.8 99 0.1 S 22 30 12 16 1018.9 1015.9 1.8
28/08:00pm 10.5 7.0 10.3 99 0.1 S 19 22 10 12 1018.8 1015.8 1.4
28/07:30pm 10.8 7.3 10.3 97 0.3 S 19 26 10 14 1018.6 1015.6 1.4
28/07:00pm 10.9 6.9 10.4 97 0.3 S 22 30 12 16 1018.6 1015.6 1.4
28/06:30pm 12.4 7.9 10.1 86 1.2 S 24 32 13 17 1018.2 1015.1 1.4
28/06:00pm 12.1 9.5 11.9 99 0.1 SSE 17 22 9 12 1018.2 1015.1 1.4
28/05:30pm 12.0 9.7 11.8 99 0.1 S 15 20 8 11 1018.2 1015.1 1.4
28/05:00pm 12.1 8.3 11.2 94 0.5 SSE 22 32 12 17 1018.2 1015.1 0.6
28/04:30pm 12.7 7.9 11.6 93 0.6 SSE 28 37 15 20 1017.9 1014.9 0.6
28/04:00pm 13.3 7.0 9.7 79 1.9 SSE 33 44 18 24 1017.8 1014.8 0.4
28/03:30pm 14.3 8.7 10.1 76 2.3 S 30 44 16 24 1017.7 1014.7 0.4
28/03:00pm 15.5 10.7 11.5 77 2.2 S 28 39 15 21 1017.6 1014.6 0.4
28/02:30pm 14.6 11.0 11.9 84 1.5 S 22 30 12 16 1018.0 1015.0 0.4
28/02:00pm 12.8 8.6 9.8 82 1.6 S 22 32 12 17 1018.5 1015.4 0.4
28/01:30pm 14.3 11.7 12.0 86 1.3 SSE 17 24 9 13 1018.5 1015.4 0.4
28/01:00pm 12.8 9.4 10.5 86 1.2 SSE 19 30 10 16 1018.7 1015.7 0.4
28/12:30pm 11.5 7.0 11.3 99 0.1 SSE 26 35 14 19 1018.8 1015.8 0.4
28/12:00pm 14.0 11.0 12.4 90 0.9 SSE 20 28 11 15 1018.6 1015.6 0.0
28/11:30am 13.1 10.3 12.5 96 0.3 SSE 19 26 10 14 1018.7 1015.7 0.0
28/11:00am 12.9 9.9 12.4 97 0.3 SSE 20 26 11 14 1018.7 1015.7 0.0
28/10:30am 12.7 10.5 12.2 97 0.3 SE 15 19 8 10 1018.7 1015.7 0.0
28/10:00am 13.3 12.1 11.7 90 0.9 SSE 9 19 5 10 1018.6 1015.6 0.0
28/09:30am 12.5 10.2 11.7 95 0.4 S 15 19 8 10 1018.6 1015.6 0.0
28/09:00am 12.7 11.1 11.4 92 0.7 SSE 11 17 6 9 1018.4 1015.3 0.0
28/08:30am 13.3 11.8 13.0 98 0.2 SSE 13 17 7 9 1018.3 1015.2 0.0
28/08:00am 11.5 10.6 11.3 99 0.1 S 7 9 4 5 1018.2 1015.1 0.0
28/07:30am 11.4 10.6 11.2 99 0.1 S 6 7 3 4 1017.7 1014.7 0.0
28/07:00am 10.6 9.6 10.4 99 0.1 SW 6 7 3 4 1017.4 1014.4 0.0
28/06:30am 10.0 8.9 10.0 100 0.0 SSW 6 6 3 3 1017.3 1014.2 0.0
28/06:00am 9.9 9.2 9.9 100 0.0 S 4 6 2 3 1017.1 1014.0 0.0
28/05:30am 9.9 9.2 9.9 100 0.0 SSE 4 6 2 3 1017.0 1013.9 0.0
28/05:00am 9.8 9.0 9.8 100 0.0 SSE 4 6 2 3 1016.8 1013.7 0.0
28/04:30am 9.9 8.8 9.9 100 0.0 SSE 6 7 3 4 1016.6 1013.6 0.0
28/04:00am 10.1 9.4 10.1 100 0.0 SE 4 6 2 3 1016.6 1013.6 0.0
28/03:30am 10.1 8.8 10.1 100 0.0 SSE 7 9 4 5 1016.9 1013.8 0.0
28/03:00am 10.1 8.8 10.1 100 0.0 SSE 7 9 4 5 1017.0 1013.9 0.0
28/02:30am 10.4 8.9 10.4 100 0.0 SE 9 13 5 7 1017.2 1014.1 0.0
28/02:00am 10.7 9.2 10.7 100 0.0 SSE 9 11 5 6 1017.4 1014.4 0.0
28/01:30am 10.7 9.2 10.7 100 0.0 SSE 9 11 5 6 1017.7 1014.7 0.0
28/01:00am 10.7 8.9 10.7 100 0.0 SSE 11 13 6 7 1017.8 1014.8 0.0
28/12:30am 10.9 9.5 10.9 100 0.0 S 9 11 5 6 1017.7 1014.7 0.0
28/12:00am 10.7 9.8 10.7 100 0.0 ESE 6 6 3 3 1017.6 1014.6 0.0
 
Date/Time
EDT
Temp
°C
App
Temp
°C
Dew
Point
Rel
Hum
%
Delta-T
°C
Wind Press
QNH
hPa
Press
MSL
hPa
Rain
since 9 am
mm
Dir
 
Spd
km/h
Gust
km/h
Spd
kts
Gust
kts
27/11:30pm 10.8 9.9 10.8 100 0.0 SSE 6 7 3 4 1017.7 1014.7 0.0
27/11:00pm 11.0 10.0 11.0 100 0.0 SSE 7 9 4 5 1017.7 1014.7 0.0
27/10:30pm 10.9 9.4 10.7 99 0.1 ESE 9 11 5 6 1017.7 1014.7 0.0
27/10:00pm 11.1 10.3 10.9 99 0.1 SE 6 7 3 4 1017.8 1014.8 0.0
27/09:30pm 11.2 10.4 11.2 100 0.0 SE 6 7 3 4 1017.7 1014.7 0.0
27/09:00pm 11.2 10.8 11.2 100 0.0 ESE 4 6 2 3 1017.5 1014.5 0.0
27/08:30pm 11.3 10.4 11.3 100 0.0 ESE 7 9 4 5 1017.3 1014.2 0.0

Other Formats:

Comma delimited format used in spreadsheet applications
http://www.bom.gov.au/fwo/IDN60801/IDN60801.94929.axf

JavaScript Object Notation format (JSON) in row-major order
http://www.bom.gov.au/fwo/IDN60801/IDN60801.94929.json